Time;durP1;ratioP1;P1;durP2;ratioP2;P2;SDS_P1;SDS_P2;PMS_P1;PMS_P2;Temp;Humidity;BMP_temperature;BMP_pressure;BME280_temperature;BME280_humidity;BME280_pressure;Samples;Min_cycle;Max_cycle;Signal;HPM_P1;HPM_P2
2021/08/20 00:01:42;;;;;;;4.07;3.17;;;19.10;99.90;;;;;;4996874;28;20585;-81
2021/08/20 00:04:08;;;;;;;4.53;3.20;;;19.00;99.90;;;;;;4997066;28;20195;-80
2021/08/20 00:06:34;;;;;;;7.80;3.67;;;19.10;99.90;;;;;;4981279;28;20673;-80
2021/08/20 00:08:59;;;;;;;5.67;2.80;;;19.10;99.90;;;;;;4980104;28;20418;-81
2021/08/20 00:11:25;;;;;;;3.13;2.80;;;19.00;99.90;;;;;;4997861;28;20191;-80
2021/08/20 00:13:53;;;;;;;5.70;3.30;;;19.10;99.90;;;;;;4998506;28;20285;-81
2021/08/20 00:16:19;;;;;;;4.10;2.77;;;19.10;99.90;;;;;;4998911;28;20188;-81
2021/08/20 00:18:44;;;;;;;2.90;2.50;;;19.10;99.90;;;;;;4998447;28;20482;-79
2021/08/20 00:21:10;;;;;;;5.57;3.10;;;19.00;99.90;;;;;;4997282;28;20211;-79
2021/08/20 00:23:36;;;;;;;4.67;2.77;;;19.00;99.90;;;;;;4996576;28;20197;-78
2021/08/20 00:26:02;;;;;;;3.43;2.50;;;18.90;99.90;;;;;;4996772;28;20429;-79
2021/08/20 00:28:28;;;;;;;3.43;2.93;;;18.90;99.90;;;;;;4995822;28;20414;-79
2021/08/20 00:30:53;;;;;;;4.23;3.17;;;18.90;99.90;;;;;;4997199;28;20480;-79
2021/08/20 00:33:19;;;;;;;3.40;2.87;;;19.00;99.90;;;;;;4996595;28;20550;-79
2021/08/20 00:35:44;;;;;;;4.53;2.77;;;19.00;99.90;;;;;;4996614;28;20178;-79
2021/08/20 00:38:10;;;;;;;3.97;2.50;;;19.00;99.90;;;;;;4996461;28;20182;-79
2021/08/20 00:40:37;;;;;;;2.30;1.70;;;19.10;99.90;;;;;;4997025;28;20226;-79
2021/08/20 00:43:02;;;;;;;3.93;2.80;;;19.10;99.90;;;;;;4997117;28;20175;-79
2021/08/20 00:45:28;;;;;;;4.00;2.87;;;19.10;99.90;;;;;;4995377;28;20442;-79
2021/08/20 00:47:53;;;;;;;3.70;2.10;;;19.20;99.90;;;;;;4996564;28;20183;-78
2021/08/20 00:50:19;;;;;;;2.73;2.33;;;19.20;99.90;;;;;;4996717;28;20191;-79
2021/08/20 00:52:45;;;;;;;3.23;2.70;;;19.10;99.90;;;;;;4996739;28;20178;-79
2021/08/20 00:55:13;;;;;;;3.90;2.73;;;19.10;99.90;;;;;;4995600;28;20249;-79
2021/08/20 00:57:39;;;;;;;2.93;2.27;;;19.10;99.90;;;;;;4996282;28;20170;-79
2021/08/20 01:00:06;;;;;;;4.20;2.87;;;19.00;99.90;;;;;;4996522;28;20427;-79
2021/08/20 01:02:32;;;;;;;6.40;2.60;;;19.10;99.90;;;;;;4995401;28;20292;-79
2021/08/20 01:04:57;;;;;;;4.17;2.50;;;19.10;99.90;;;;;;4996258;28;20445;-79
2021/08/20 01:07:23;;;;;;;3.00;2.10;;;19.10;99.90;;;;;;4996421;28;20915;-79
2021/08/20 01:09:48;;;;;;;2.57;2.00;;;19.10;99.90;;;;;;4996869;28;20668;-80
2021/08/20 01:12:14;;;;;;;2.90;2.60;;;19.10;99.90;;;;;;4996119;28;20175;-79
2021/08/20 01:14:40;;;;;;;2.50;2.27;;;19.10;99.90;;;;;;4994956;28;20202;-79
2021/08/20 01:17:11;;;;;;;3.17;2.53;;;19.10;99.90;;;;;;4979481;28;20274;-79
2021/08/20 01:19:38;;;;;;;2.90;2.10;;;19.10;99.90;;;;;;4996562;28;20175;-79
2021/08/20 01:22:07;;;;;;;2.37;2.10;;;19.00;99.90;;;;;;4996457;28;20468;-80
2021/08/20 01:24:32;;;;;;;3.20;2.43;;;19.00;99.90;;;;;;4995939;28;20449;-78
2021/08/20 01:26:58;;;;;;;2.67;2.07;;;19.10;99.90;;;;;;4995951;28;20410;-80
2021/08/20 01:29:24;;;;;;;2.13;1.70;;;19.00;99.90;;;;;;4996702;28;20442;-79
2021/08/20 01:31:51;;;;;;;2.90;2.37;;;19.00;99.90;;;;;;4996480;28;20175;-79
2021/08/20 01:34:17;;;;;;;2.90;1.80;;;18.90;99.90;;;;;;4996648;28;20426;-80
2021/08/20 01:36:42;;;;;;;4.07;2.40;;;18.90;99.90;;;;;;4996827;28;20418;-79
2021/08/20 01:39:08;;;;;;;4.97;3.20;;;18.90;99.90;;;;;;4995661;28;20680;-79
2021/08/20 01:41:34;;;;;;;4.13;2.20;;;18.80;99.90;;;;;;4995379;28;20201;-79
2021/08/20 01:44:04;;;;;;;3.87;2.20;;;18.80;99.90;;;;;;4995127;28;20440;-80
2021/08/20 01:46:34;;;;;;;3.20;2.43;;;18.90;99.90;;;;;;4994705;28;20422;-79
2021/08/20 01:49:01;;;;;;;2.90;2.40;;;18.90;99.90;;;;;;4996047;28;20414;-80
2021/08/20 01:51:31;;;;;;;3.10;1.90;;;18.80;99.90;;;;;;4996089;28;20429;-79
2021/08/20 01:54:00;;;;;;;4.60;2.93;;;18.80;99.90;;;;;;4997319;28;20438;-79
2021/08/20 01:56:27;;;;;;;3.67;2.93;;;18.80;99.90;;;;;;4995903;28;20520;-79
2021/08/20 01:58:54;;;;;;;4.73;3.10;;;18.80;99.90;;;;;;4995268;28;20433;-79
2021/08/20 02:01:20;;;;;;;3.83;3.20;;;18.70;99.90;;;;;;4995172;28;20481;-79
2021/08/20 02:03:46;;;;;;;7.90;3.10;;;18.70;99.90;;;;;;4993920;28;20821;-78
2021/08/20 02:06:11;;;;;;;4.23;2.70;;;18.70;99.90;;;;;;4995373;28;20258;-79
2021/08/20 02:08:37;;;;;;;4.80;2.40;;;18.70;99.90;;;;;;4995361;28;20666;-78
2021/08/20 02:11:03;;;;;;;2.57;1.73;;;18.70;99.90;;;;;;4993502;28;20178;-79
2021/08/20 02:13:32;;;;;;;5.20;3.30;;;18.70;99.90;;;;;;4993777;28;20221;-79
2021/08/20 02:15:58;;;;;;;3.63;2.43;;;18.60;99.90;;;;;;4995818;28;20409;-80
2021/08/20 02:18:25;;;;;;;3.53;2.70;;;18.60;99.90;;;;;;4996133;28;20432;-79
2021/08/20 02:20:50;;;;;;;4.10;3.10;;;18.60;99.90;;;;;;4995044;28;20493;-79
2021/08/20 02:23:16;;;;;;;3.73;2.57;;;18.60;99.90;;;;;;4994388;28;20502;-79
2021/08/20 02:25:42;;;;;;;3.57;2.20;;;18.60;99.90;;;;;;4994468;28;20201;-79
2021/08/20 02:28:08;;;;;;;3.87;2.13;;;18.60;99.90;;;;;;4995294;28;20175;-80
2021/08/20 02:30:33;;;;;;;2.63;1.80;;;18.70;99.90;;;;;;4995770;28;20490;-80
2021/08/20 02:32:59;;;;;;;2.50;2.00;;;18.70;99.90;;;;;;4996188;28;20313;-80
2021/08/20 02:35:26;;;;;;;3.20;2.10;;;18.70;99.90;;;;;;4999318;28;20199;-79
2021/08/20 02:37:53;;;;;;;3.40;2.20;;;18.70;99.90;;;;;;4998586;28;20177;-79
2021/08/20 02:40:19;;;;;;;2.90;1.77;;;18.80;99.90;;;;;;4997599;28;20800;-80
2021/08/20 02:42:44;;;;;;;3.10;2.30;;;18.80;99.90;;;;;;4998727;28;20416;-78
2021/08/20 02:45:10;;;;;;;4.73;2.80;;;18.80;99.90;;;;;;4997805;28;20193;-79
2021/08/20 02:47:37;;;;;;;3.40;2.17;;;18.80;99.90;;;;;;4998625;28;20199;-79
2021/08/20 02:50:03;;;;;;;6.00;3.07;;;18.80;99.90;;;;;;5000153;28;20171;-80
2021/08/20 02:52:29;;;;;;;3.33;2.57;;;18.70;99.90;;;;;;4999835;28;20417;-80
2021/08/20 02:54:54;;;;;;;3.60;2.40;;;18.70;99.90;;;;;;4999297;28;20512;-80
2021/08/20 02:57:23;;;;;;;4.87;2.10;;;18.70;99.90;;;;;;4998371;28;20179;-79
2021/08/20 02:59:49;;;;;;;4.70;2.30;;;18.70;99.90;;;;;;4998830;28;20178;-79
2021/08/20 03:02:15;;;;;;;3.13;1.80;;;18.70;99.90;;;;;;4998883;28;20461;-79
2021/08/20 03:04:40;;;;;;;6.03;2.80;;;18.70;99.90;;;;;;4998377;28;20524;-79
2021/08/20 03:07:06;;;;;;;3.97;2.60;;;18.70;99.90;;;;;;4998866;28;20229;-80
2021/08/20 03:09:31;;;;;;;2.93;1.80;;;18.70;99.90;;;;;;4998735;28;20666;-78
2021/08/20 03:11:57;;;;;;;3.60;2.53;;;18.70;99.90;;;;;;4997468;28;20199;-79
2021/08/20 03:14:22;;;;;;;2.10;1.60;;;18.70;99.90;;;;;;4998625;28;20190;-79
2021/08/20 03:16:48;;;;;;;2.80;1.80;;;18.80;99.90;;;;;;4999377;28;20210;-79
2021/08/20 03:19:17;;;;;;;2.10;1.60;;;18.70;99.90;;;;;;4998298;28;20269;-80
2021/08/20 03:21:42;;;;;;;2.97;2.50;;;18.80;99.90;;;;;;4998279;28;20190;-80
2021/08/20 03:24:08;;;;;;;3.47;2.40;;;18.80;99.90;;;;;;4996958;28;20444;-79
2021/08/20 03:26:34;;;;;;;2.53;2.00;;;18.80;99.90;;;;;;4997916;28;20209;-79
2021/08/20 03:29:01;;;;;;;4.00;1.97;;;18.80;99.90;;;;;;4997434;28;20442;-79
2021/08/20 03:31:29;;;;;;;3.37;2.27;;;18.70;99.90;;;;;;4996082;28;20179;-79
2021/08/20 03:33:54;;;;;;;3.70;2.43;;;18.60;99.90;;;;;;4996454;28;20441;-80
2021/08/20 03:36:22;;;;;;;2.80;2.10;;;18.60;99.90;;;;;;4997161;28;20929;-79
2021/08/20 03:38:50;;;;;;;4.67;2.80;;;18.60;99.90;;;;;;4998058;28;20230;-80
2021/08/20 03:41:21;;;;;;;2.90;2.10;;;18.60;99.90;;;;;;4997777;28;20773;-80
2021/08/20 03:43:47;;;;;;;2.80;2.33;;;18.50;99.90;;;;;;4996433;28;20492;-79
2021/08/20 03:46:13;;;;;;;2.70;2.10;;;18.50;99.90;;;;;;4995685;28;20418;-80
2021/08/20 03:48:39;;;;;;;3.97;2.83;;;18.60;99.90;;;;;;4996941;28;20167;-80
2021/08/20 03:51:05;;;;;;;3.57;2.20;;;18.60;99.90;;;;;;4995952;28;20530;-80
2021/08/20 03:53:30;;;;;;;3.70;2.77;;;18.60;99.90;;;;;;4996612;28;20206;-81
2021/08/20 03:55:56;;;;;;;5.00;2.47;;;18.60;99.90;;;;;;4995630;28;20191;-80
2021/08/20 03:58:22;;;;;;;3.67;2.67;;;18.70;99.90;;;;;;4996371;28;20209;-80
2021/08/20 04:00:54;;;;;;;4.63;2.37;;;18.60;99.90;;;;;;4997452;28;20465;-79
2021/08/20 04:03:20;;;;;;;3.17;2.33;;;18.60;99.90;;;;;;4997108;28;20254;-80
2021/08/20 04:05:46;;;;;;;4.40;2.03;;;18.50;99.90;;;;;;4998496;28;20417;-79
2021/08/20 04:08:13;;;;;;;2.90;2.20;;;18.50;99.90;;;;;;4998180;28;20418;-78
2021/08/20 04:10:41;;;;;;;3.10;2.40;;;18.50;99.90;;;;;;4996542;28;20936;-78
2021/08/20 04:13:07;;;;;;;3.37;2.47;;;18.60;99.90;;;;;;4996736;28;20426;-78
2021/08/20 04:15:33;;;;;;;3.03;2.50;;;18.50;99.90;;;;;;4997151;28;20433;-79
2021/08/20 04:17:59;;;;;;;4.27;3.47;;;18.50;99.90;;;;;;4997141;28;20512;-79
2021/08/20 04:20:24;;;;;;;3.53;2.83;;;18.60;99.90;;;;;;4995719;28;20278;-79
2021/08/20 04:22:50;;;;;;;3.37;2.53;;;18.60;99.90;;;;;;4997014;28;20202;-79
2021/08/20 04:25:16;;;;;;;4.30;2.50;;;18.60;99.90;;;;;;4997696;28;20238;-80
2021/08/20 04:27:41;;;;;;;3.10;2.30;;;18.50;99.90;;;;;;4997474;28;20634;-80
2021/08/20 04:30:07;;;;;;;4.03;2.47;;;18.50;99.90;;;;;;4997028;28;20421;-79
2021/08/20 04:32:35;;;;;;;3.07;2.60;;;18.50;99.90;;;;;;4997502;28;20189;-80
2021/08/20 04:35:00;;;;;;;4.27;3.00;;;18.50;99.90;;;;;;4997870;28;20202;-80
2021/08/20 04:37:26;;;;;;;2.80;2.17;;;18.50;99.90;;;;;;4997538;28;20767;-81
2021/08/20 04:39:51;;;;;;;3.40;2.63;;;18.50;99.90;;;;;;4998034;28;20178;-80
2021/08/20 04:42:17;;;;;;;4.33;2.60;;;18.50;99.90;;;;;;4996704;28;20268;-80
2021/08/20 04:44:43;;;;;;;3.77;2.97;;;18.60;99.90;;;;;;4995760;28;20318;-80
2021/08/20 04:47:09;;;;;;;5.37;3.13;;;18.50;99.90;;;;;;4997029;28;20239;-80
2021/08/20 04:49:35;;;;;;;9.03;3.73;;;18.60;99.90;;;;;;4997190;28;20171;-78
2021/08/20 04:52:00;;;;;;;6.07;3.83;;;18.50;99.90;;;;;;4996467;28;20424;-79
2021/08/20 04:54:29;;;;;;;13.10;5.33;;;18.50;99.90;;;;;;4995225;28;20209;-78
2021/08/20 04:56:55;;;;;;;10.33;4.30;;;18.40;99.90;;;;;;4995198;28;20183;-80
2021/08/20 04:59:20;;;;;;;6.80;3.70;;;18.40;99.90;;;;;;4994936;28;20429;-80
2021/08/20 05:01:46;;;;;;;6.97;3.80;;;18.40;99.90;;;;;;4995951;28;20194;-79
2021/08/20 05:04:12;;;;;;;7.37;3.80;;;18.40;99.90;;;;;;4995755;28;20748;-80
2021/08/20 05:06:38;;;;;;;6.57;4.10;;;18.20;99.90;;;;;;4996685;28;20436;-79
2021/08/20 05:09:04;;;;;;;6.50;3.80;;;18.20;99.90;;;;;;4996869;28;20428;-80
2021/08/20 05:11:29;;;;;;;4.50;3.40;;;18.20;99.90;;;;;;4996552;28;20421;-79
2021/08/20 05:13:55;;;;;;;5.20;4.30;;;18.30;99.90;;;;;;4996973;28;20202;-79
2021/08/20 05:16:21;;;;;;;5.63;3.50;;;18.30;99.90;;;;;;4996408;28;20226;-79
2021/08/20 05:18:47;;;;;;;5.77;4.20;;;18.40;99.90;;;;;;4998071;28;20178;-80
2021/08/20 05:21:12;;;;;;;7.40;4.90;;;18.20;99.90;;;;;;4996124;28;20674;-79
2021/08/20 05:23:38;;;;;;;6.10;3.93;;;18.10;99.90;;;;;;4995602;28;20460;-81
2021/08/20 05:26:03;;;;;;;6.50;4.07;;;18.10;99.90;;;;;;4996792;28;20207;-78
2021/08/20 05:28:29;;;;;;;6.57;4.07;;;18.10;99.90;;;;;;4996322;28;20177;-80
2021/08/20 05:30:54;;;;;;;5.10;4.00;;;18.20;99.90;;;;;;4994846;28;20174;-81
2021/08/20 05:33:23;;;;;;;4.00;3.30;;;18.30;99.90;;;;;;4979018;28;20193;-80
2021/08/20 05:35:48;;;;;;;6.80;4.57;;;18.30;99.90;;;;;;4976794;28;20180;-79
2021/08/20 05:38:14;;;;;;;5.63;4.10;;;18.40;99.90;;;;;;4976132;28;20423;-80
2021/08/20 05:40:40;;;;;;;6.90;4.40;;;18.50;99.90;;;;;;4994370;28;20198;-79
2021/08/20 05:43:05;;;;;;;6.87;4.30;;;18.40;99.90;;;;;;4995947;28;20635;-80
2021/08/20 05:45:36;;;;;;;9.10;4.90;;;18.40;99.90;;;;;;4994178;28;20211;-80
2021/08/20 05:48:01;;;;;;;5.23;3.80;;;18.40;99.90;;;;;;4994329;28;20664;-81
2021/08/20 05:50:27;;;;;;;7.60;4.57;;;18.50;99.90;;;;;;4995855;28;20430;-80
2021/08/20 05:52:52;;;;;;;6.30;4.27;;;18.60;99.90;;;;;;4995160;28;20201;-80
2021/08/20 05:55:18;;;;;;;5.30;3.77;;;18.60;99.90;;;;;;4996140;28;20210;-81
2021/08/20 05:57:49;;;;;;;8.60;5.43;;;18.70;99.90;;;;;;4994662;28;20179;-79
2021/08/20 06:00:15;;;;;;;9.83;4.77;;;18.80;99.90;;;;;;4995302;28;20254;-80
2021/08/20 06:02:41;;;;;;;8.73;5.47;;;18.80;99.90;;;;;;4995612;28;20507;-81
2021/08/20 06:05:09;;;;;;;7.33;4.57;;;18.80;99.90;;;;;;4993441;28;20893;-81
2021/08/20 06:07:35;;;;;;;9.20;5.47;;;18.90;99.90;;;;;;4994684;28;20194;-80
2021/08/20 06:10:00;;;;;;;13.47;6.60;;;18.90;99.90;;;;;;4995234;28;20417;-80
2021/08/20 06:12:27;;;;;;;9.17;5.83;;;19.00;99.90;;;;;;4995110;28;20175;-80
2021/08/20 06:14:53;;;;;;;6.93;5.20;;;19.00;99.90;;;;;;4994499;28;20198;-79
2021/08/20 06:17:19;;;;;;;8.30;5.13;;;19.00;99.90;;;;;;4994689;28;20461;-80
2021/08/20 06:19:44;;;;;;;9.77;5.90;;;19.10;99.90;;;;;;4994176;28;20649;-80
2021/08/20 06:22:10;;;;;;;8.00;5.27;;;19.30;99.90;;;;;;4988974;28;20212;-80
2021/08/20 06:24:38;;;;;;;11.57;6.60;;;19.30;99.90;;;;;;4994655;28;20230;-80
2021/08/20 06:27:05;;;;;;;8.07;5.40;;;19.40;99.90;;;;;;4994712;28;20184;-79
2021/08/20 06:29:30;;;;;;;10.70;6.53;;;19.50;99.90;;;;;;4995700;28;20504;-79
2021/08/20 06:31:56;;;;;;;10.00;6.97;;;19.40;99.90;;;;;;4995633;28;20466;-81
2021/08/20 06:34:21;;;;;;;12.13;7.70;;;19.40;99.90;;;;;;4996427;28;20195;-79
2021/08/20 06:36:47;;;;;;;10.27;6.67;;;19.50;99.90;;;;;;4994442;28;20203;-80
2021/08/20 06:39:13;;;;;;;9.30;6.10;;;19.50;99.90;;;;;;4994868;28;20667;-79
2021/08/20 06:41:39;;;;;;;13.70;7.87;;;19.60;99.90;;;;;;4977941;28;20204;-79
2021/08/20 06:44:04;;;;;;;19.87;7.73;;;19.60;99.90;;;;;;4994750;28;20206;-79
2021/08/20 06:46:30;;;;;;;10.43;7.17;;;19.60;99.90;;;;;;4994059;28;20434;-80
2021/08/20 06:48:55;;;;;;;12.83;8.50;;;19.50;99.90;;;;;;4995714;28;20192;-80
2021/08/20 06:51:21;;;;;;;15.43;8.30;;;19.60;99.90;;;;;;4995644;28;20639;-79
2021/08/20 06:53:47;;;;;;;12.10;8.70;;;19.60;99.90;;;;;;4995196;28;20231;-79
2021/08/20 06:56:12;;;;;;;12.30;7.73;;;19.60;99.90;;;;;;4995686;28;20276;-79
2021/08/20 06:58:38;;;;;;;12.43;8.20;;;19.70;99.90;;;;;;4993767;28;20288;-80
2021/08/20 07:01:03;;;;;;;18.17;10.00;;;19.60;99.90;;;;;;4994141;28;20199;-79
2021/08/20 07:03:29;;;;;;;14.07;7.80;;;19.70;99.90;;;;;;4995075;28;20178;-79
2021/08/20 07:05:54;;;;;;;12.37;7.70;;;19.80;99.90;;;;;;4993363;28;20270;-79
2021/08/20 07:08:20;;;;;;;12.67;8.43;;;19.80;99.90;;;;;;4992901;28;20174;-78
2021/08/20 07:10:45;;;;;;;13.63;8.10;;;19.80;99.90;;;;;;4995066;28;20179;-80
2021/08/20 07:13:11;;;;;;;13.03;9.20;;;19.90;99.90;;;;;;4993764;28;20193;-80
2021/08/20 07:15:36;;;;;;;12.00;7.60;;;19.80;99.90;;;;;;4993739;28;20192;-78
2021/08/20 07:18:02;;;;;;;21.90;8.27;;;19.70;99.90;;;;;;4990039;28;20577;-79
2021/08/20 07:20:27;;;;;;;12.63;7.80;;;19.60;99.90;;;;;;4981101;28;20556;-79
2021/08/20 07:22:53;;;;;;;16.20;8.70;;;19.50;99.90;;;;;;4998066;28;20167;-78
2021/08/20 07:25:19;;;;;;;12.57;7.70;;;19.50;99.90;;;;;;4992988;28;20207;-79
2021/08/20 07:27:44;;;;;;;15.60;8.03;;;19.50;99.90;;;;;;4977273;28;20476;-78
2021/08/20 07:30:11;;;;;;;11.73;8.67;;;19.50;99.90;;;;;;4976932;28;20199;-80
2021/08/20 07:32:37;;;;;;;14.40;9.50;;;19.50;99.90;;;;;;4977300;28;20179;-80
2021/08/20 07:35:03;;;;;;;9.20;6.53;;;19.60;99.90;;;;;;4977903;28;21042;-80
2021/08/20 07:37:28;;;;;;;14.10;8.40;;;19.70;99.90;;;;;;4976813;28;20675;-78
2021/08/20 07:39:54;;;;;;;12.80;8.50;;;19.70;99.90;;;;;;4977683;28;20971;-77
2021/08/20 07:42:19;;;;;;;12.67;9.77;;;19.60;99.90;;;;;;4977778;28;20260;-79
2021/08/20 07:44:46;;;;;;;13.20;7.73;;;19.40;99.90;;;;;;4961050;28;20228;-80
2021/08/20 07:47:11;;;;;;;10.00;7.07;;;19.50;99.90;;;;;;4979517;28;20173;-80
2021/08/20 07:49:37;;;;;;;12.60;8.13;;;19.50;99.90;;;;;;4978865;28;20430;-81
2021/08/20 07:52:03;;;;;;;16.93;7.87;;;19.50;99.90;;;;;;4961546;28;20182;-81
2021/08/20 07:54:28;;;;;;;13.47;7.57;;;19.50;99.90;;;;;;4978194;28;20282;-80
2021/08/20 07:56:54;;;;;;;10.53;7.60;;;19.40;99.90;;;;;;4976610;28;20427;-78
2021/08/20 07:59:20;;;;;;;9.10;6.50;;;19.40;99.90;;;;;;4976716;28;20423;-80
2021/08/20 08:01:45;;;;;;;10.40;7.10;;;19.50;99.90;;;;;;4977667;28;20277;-81
2021/08/20 08:04:11;;;;;;;11.77;8.10;;;19.30;99.90;;;;;;4978623;28;20230;-80
2021/08/20 08:06:38;;;;;;;11.63;6.93;;;19.30;99.90;;;;;;4978211;28;20172;-80
2021/08/20 08:09:04;;;;;;;7.73;5.80;;;19.20;99.90;;;;;;4960280;28;20179;-78
2021/08/20 08:11:31;;;;;;;7.77;4.87;;;19.10;99.90;;;;;;4978168;28;20411;-80
2021/08/20 08:14:08;;;;;;;7.90;4.93;;;19.00;99.90;;;;;;4976789;28;20609;-80
2021/08/20 08:16:38;;;;;;;9.00;4.87;;;19.10;99.90;;;;;;4978332;28;20411;-79
2021/08/20 08:19:05;;;;;;;79.37;41.03;;;19.00;99.90;;;;;;4977534;28;20429;-80
2021/08/20 08:21:32;;;;;;;9.30;6.10;;;18.90;99.90;;;;;;4978641;28;20458;-80
2021/08/20 08:24:00;;;;;;;8.83;6.00;;;18.80;99.90;;;;;;4978467;28;20438;-80
2021/08/20 08:26:26;;;;;;;8.07;5.10;;;18.90;99.90;;;;;;4978908;28;20444;-81
2021/08/20 08:28:53;;;;;;;8.70;5.63;;;18.70;99.90;;;;;;4977382;28;20962;-79
2021/08/20 08:31:20;;;;;;;6.20;5.07;;;18.80;99.90;;;;;;4976199;28;20431;-82
2021/08/20 08:33:46;;;;;;;6.27;5.20;;;18.80;99.90;;;;;;4976672;28;20521;-80
2021/08/20 08:36:11;;;;;;;5.63;4.60;;;18.90;99.90;;;;;;4978914;28;20422;-80
2021/08/20 08:38:40;;;;;;;6.90;4.77;;;18.90;99.90;;;;;;4977829;28;20633;-80
2021/08/20 08:41:05;;;;;;;9.13;5.40;;;18.90;99.90;;;;;;4978922;28;20206;-81
2021/08/20 08:43:31;;;;;;;7.23;5.10;;;18.80;99.90;;;;;;4978925;28;20426;-81
2021/08/20 08:46:02;;;;;;;8.07;4.80;;;18.70;99.90;;;;;;4978743;28;20222;-81
2021/08/20 08:48:29;;;;;;;8.37;5.90;;;18.70;99.90;;;;;;4978940;28;20410;-81
2021/08/20 08:50:58;;;;;;;10.40;5.43;;;18.60;99.90;;;;;;4979004;28;20962;-81
2021/08/20 08:53:23;;;;;;;8.67;5.80;;;18.60;99.90;;;;;;4977760;28;20425;-80
2021/08/20 08:55:49;;;;;;;8.90;6.83;;;18.60;99.90;;;;;;4975879;28;20421;-79
2021/08/20 08:58:15;;;;;;;103.87;64.43;;;18.40;99.90;;;;;;4977067;28;20206;-80
2021/08/20 09:00:41;;;;;;;10.50;6.50;;;18.50;99.90;;;;;;4983572;28;20196;-78
2021/08/20 09:03:20;;;;;;;10.00;6.63;;;18.50;99.90;;;;;;4999823;28;20406;-78
2021/08/20 09:05:46;;;;;;;11.10;6.50;;;18.40;99.90;;;;;;5001813;28;20170;-78
2021/08/20 09:08:14;;;;;;;12.40;6.57;;;18.50;99.90;;;;;;5004395;28;21163;-79
2021/08/20 09:10:56;;;;;;;10.77;6.53;;;18.50;99.90;;;;;;5004576;28;20414;-79
2021/08/20 09:13:23;;;;;;;10.17;7.00;;;18.60;99.90;;;;;;5017747;28;20424;-79
2021/08/20 09:16:33;;;;;;;12.40;7.80;;;18.50;99.90;;;;;;5015835;28;20405;-80
2021/08/20 09:19:17;;;;;;;13.80;7.97;;;18.60;99.90;;;;;;4975612;28;20429;-80
2021/08/20 09:21:52;;;;;;;11.30;7.17;;;18.80;99.90;;;;;;5015989;28;20465;-79
2021/08/20 09:24:37;;;;;;;10.67;7.43;;;18.90;99.90;;;;;;5014991;28;20507;-80
2021/08/20 09:27:17;;;;;;;11.53;7.40;;;18.90;99.90;;;;;;5015728;28;20699;-80
2021/08/20 09:30:11;;;;;;;9.37;6.00;;;18.80;99.90;;;;;;5016210;28;20926;-80
2021/08/20 09:32:42;;;;;;;10.63;7.37;;;18.90;99.90;;;;;;4991951;28;20521;-79
2021/08/20 09:35:08;;;;;;;10.60;7.37;;;18.80;99.90;;;;;;4978095;28;20496;-79
2021/08/20 09:37:34;;;;;;;11.37;7.20;;;18.70;99.90;;;;;;4996154;28;20417;-80
2021/08/20 09:40:06;;;;;;;14.03;8.57;;;18.90;99.90;;;;;;4990369;28;20419;-80
2021/08/20 09:42:32;;;;;;;9.37;7.00;;;19.00;99.90;;;;;;4973054;28;20494;-79
2021/08/20 09:45:10;;;;;;;8.83;6.07;;;19.00;99.90;;;;;;4977573;28;20446;-80
2021/08/20 09:47:41;;;;;;;9.93;5.97;;;19.10;99.90;;;;;;4977969;28;20403;-80
2021/08/20 09:50:06;;;;;;;7.53;5.47;;;19.20;99.90;;;;;;4996788;28;20414;-80
2021/08/20 09:58:35;;;;;;;11.03;7.70;;;19.60;99.90;;;;;;5113764;22;20465;-81
2021/08/20 10:01:04;;;;;;;9.43;6.73;;;19.50;99.90;;;;;;5091016;28;20438;-81
2021/08/20 10:06:15;;;;;;;6.80;4.97;;;19.70;99.90;;;;;;5016643;28;20458;-80
2021/08/20 10:08:41;;;;;;;7.90;5.77;;;20.00;99.90;;;;;;5014985;28;20769;-80
2021/08/20 10:11:08;;;;;;;6.20;4.80;;;20.20;99.90;;;;;;5014542;28;20418;-79
2021/08/20 10:13:34;;;;;;;6.73;5.50;;;20.10;99.90;;;;;;5016765;28;20493;-80
2021/08/20 10:16:01;;;;;;;6.50;4.93;;;20.40;99.90;;;;;;5015318;28;20445;-79
2021/08/20 10:18:30;;;;;;;7.73;4.87;;;20.40;99.90;;;;;;5014302;28;20467;-79
2021/08/20 10:20:56;;;;;;;5.80;4.67;;;20.10;99.90;;;;;;5017069;28;20456;-79
2021/08/20 10:23:22;;;;;;;4.60;3.90;;;20.20;99.90;;;;;;5015941;28;20428;-80
2021/08/20 10:25:56;;;;;;;5.73;4.30;;;20.20;99.90;;;;;;5016687;28;20463;-79
2021/08/20 10:28:25;;;;;;;5.40;4.03;;;20.30;99.90;;;;;;5014405;28;20412;-80
2021/08/20 10:30:52;;;;;;;5.93;4.53;;;20.20;99.90;;;;;;5014442;28;20412;-80
2021/08/20 10:33:30;;;;;;;7.33;4.47;;;20.60;99.90;;;;;;5017284;28;20412;-80
2021/08/20 10:35:57;;;;;;;6.80;3.63;;;20.80;99.90;;;;;;5014817;28;20507;-80
2021/08/20 10:38:25;;;;;;;5.50;4.30;;;20.80;99.90;;;;;;5016599;28;20413;-80
2021/08/20 10:41:13;;;;;;;4.93;3.70;;;20.60;99.90;;;;;;5016622;28;20492;-79
2021/08/20 10:43:52;;;;;;;5.80;4.37;;;20.70;99.90;;;;;;5015895;28;20523;-80
2021/08/20 10:46:33;;;;;;;7.90;4.70;;;20.50;99.90;;;;;;5014931;28;20751;-80
2021/08/20 10:49:11;;;;;;;7.87;4.40;;;20.50;99.90;;;;;;5016752;28;20976;-80
2021/08/20 10:54:26;;;;;;;4.47;3.80;;;20.60;99.90;;;;;;5018344;28;20433;-81
2021/08/20 10:56:55;;;;;;;4.87;3.80;;;20.70;99.90;;;;;;5019176;28;20911;-81
2021/08/20 10:59:36;;;;;;;4.60;3.53;;;20.70;99.90;;;;;;5020432;28;20417;-81
2021/08/20 11:02:19;;;;;;;4.40;3.37;;;20.70;99.90;;;;;;5020836;28;20471;-80
2021/08/20 11:05:11;;;;;;;4.67;3.83;;;20.80;99.90;;;;;;5020108;28;20458;-81
2021/08/20 11:07:43;;;;;;;6.00;4.13;;;20.90;99.90;;;;;;5021061;28;20405;-80
2021/08/20 11:10:08;;;;;;;5.87;4.00;;;21.00;99.90;;;;;;5019803;28;20788;-80
2021/08/20 11:12:49;;;;;;;5.60;4.37;;;20.90;99.90;;;;;;5020306;28;20452;-81
2021/08/20 11:15:20;;;;;;;5.47;4.60;;;20.90;99.90;;;;;;5019500;28;20763;-82
2021/08/20 11:17:53;;;;;;;4.83;3.73;;;21.10;99.90;;;;;;5020233;28;20437;-81
2021/08/20 11:20:26;;;;;;;7.93;4.23;;;21.20;99.90;;;;;;5018978;28;20429;-81
2021/08/20 11:25:42;;;;;;;6.63;4.63;;;20.90;99.90;;;;;;5019119;28;20435;-81
2021/08/20 11:28:34;;;;;;;7.07;4.13;;;20.80;99.90;;;;;;5018356;28;20463;-80
2021/08/20 11:31:12;;;;;;;4.67;3.73;;;20.90;99.90;;;;;;4999599;28;20977;-81
2021/08/20 11:33:39;;;;;;;5.00;3.90;;;20.60;99.90;;;;;;5006894;28;20486;-80
2021/08/20 11:36:13;;;;;;;5.43;3.50;;;20.70;99.90;;;;;;5017629;28;20459;-80
2021/08/20 11:38:42;;;;;;;4.70;3.47;;;20.80;99.90;;;;;;5018644;28;20432;-80
2021/08/20 11:41:21;;;;;;;4.80;4.23;;;21.00;99.90;;;;;;5018471;28;20534;-80
2021/08/20 11:44:07;;;;;;;4.60;3.80;;;21.10;99.90;;;;;;5020786;28;20448;-81
2021/08/20 11:46:42;;;;;;;4.30;3.70;;;21.10;99.90;;;;;;5017021;28;20423;-80
2021/08/20 11:49:12;;;;;;;4.90;3.57;;;21.30;99.90;;;;;;5017774;28;20424;-82
2021/08/20 11:51:40;;;;;;;5.20;4.70;;;21.20;99.90;;;;;;5017626;28;20822;-81
2021/08/20 11:54:07;;;;;;;5.97;4.30;;;21.30;99.90;;;;;;5018297;28;20531;-83
2021/08/20 11:56:34;;;;;;;5.73;4.63;;;21.40;99.90;;;;;;5019017;28;20445;-79
2021/08/20 11:59:10;;;;;;;5.43;4.70;;;21.30;99.90;;;;;;5017998;28;20511;-80
2021/08/20 12:01:40;;;;;;;6.37;4.50;;;21.10;99.90;;;;;;5019447;28;20989;-80
2021/08/20 12:04:07;;;;;;;6.47;5.20;;;21.00;99.90;;;;;;5018974;28;20425;-80
2021/08/20 12:06:33;;;;;;;6.03;4.63;;;20.80;99.90;;;;;;5019355;28;20467;-80
2021/08/20 12:09:13;;;;;;;6.80;4.50;;;20.70;99.90;;;;;;5018944;28;20413;-80
2021/08/20 12:11:42;;;;;;;9.80;5.63;;;20.80;99.90;;;;;;5018366;28;20562;-80
2021/08/20 12:14:15;;;;;;;7.33;5.37;;;20.60;99.90;;;;;;5017309;28;20473;-80
2021/08/20 12:16:45;;;;;;;5.47;4.77;;;20.50;99.90;;;;;;5018684;28;20423;-79
2021/08/20 12:19:25;;;;;;;5.83;5.17;;;20.50;99.90;;;;;;5017978;28;20419;-80
2021/08/20 12:22:12;;;;;;;7.23;5.83;;;20.40;99.90;;;;;;5017919;28;20460;-80
2021/08/20 12:24:38;;;;;;;6.13;5.23;;;20.50;99.90;;;;;;5017121;28;20970;-80
2021/08/20 12:27:10;;;;;;;8.97;5.70;;;20.40;99.90;;;;;;5017374;28;20470;-80
2021/08/20 12:29:36;;;;;;;5.30;4.73;;;20.50;99.90;;;;;;5018518;28;20745;-79
2021/08/20 12:32:01;;;;;;;7.30;5.40;;;20.50;99.90;;;;;;5018992;28;20418;-80
2021/08/20 12:34:37;;;;;;;6.93;5.87;;;20.50;99.90;;;;;;5018820;28;20696;-80
2021/08/20 12:37:05;;;;;;;8.07;6.03;;;20.60;99.90;;;;;;5019529;28;20665;-79
2021/08/20 12:39:40;;;;;;;6.57;5.20;;;20.60;99.90;;;;;;5019870;28;20412;-80
2021/08/20 12:42:26;;;;;;;13.10;5.57;;;20.60;99.90;;;;;;5018235;28;20458;-80
2021/08/20 12:45:11;;;;;;;7.23;6.10;;;20.70;99.90;;;;;;5017582;28;20451;-80
2021/08/20 12:47:36;;;;;;;6.17;5.57;;;20.80;99.90;;;;;;5018439;28;20515;-79
2021/08/20 12:50:06;;;;;;;8.60;5.63;;;20.90;99.90;;;;;;5019246;28;20436;-80
2021/08/20 12:52:32;;;;;;;6.17;5.23;;;20.90;99.90;;;;;;5019470;28;20797;-80
2021/08/20 12:55:18;;;;;;;12.17;6.50;;;20.90;99.90;;;;;;5018849;28;20467;-80
2021/08/20 12:57:50;;;;;;;7.63;6.70;;;21.00;99.90;;;;;;5018441;28;20467;-80
2021/08/20 13:00:16;;;;;;;9.63;6.83;;;21.00;99.90;;;;;;5019889;28;20428;-80
2021/08/20 13:02:41;;;;;;;7.83;6.90;;;20.90;99.90;;;;;;5019133;28;20472;-81
2021/08/20 13:05:07;;;;;;;9.30;6.93;;;20.90;99.90;;;;;;5022946;28;20971;-81